Time;durP1;ratioP1;P1;durP2;ratioP2;P2;SDS_P1;SDS_P2;PMS_P1;PMS_P2;Temp;Humidity;BMP_temperature;BMP_pressure;BME280_temperature;BME280_humidity;BME280_pressure;Samples;Min_cycle;Max_cycle;Signal;HPM_P1;HPM_P2
2022/04/05 00:01:12;;;;;;;29.47;14.40;;;1.10;99.90;;;;;;4124701;28;20447;-59
2022/04/05 00:03:14;;;;;;;42.73;20.10;;;1.00;99.90;;;;;;4139140;28;20283;-56
2022/04/05 00:05:24;;;;;;;40.27;19.03;;;1.00;99.90;;;;;;4141024;28;20310;-58
2022/04/05 00:07:25;;;;;;;37.22;19.10;;;1.00;99.90;;;;;;4142057;28;20321;-54
2022/04/05 00:09:27;;;;;;;32.30;16.57;;;1.00;99.90;;;;;;4141171;28;20658;-57
2022/04/05 00:11:28;;;;;;;35.70;17.00;;;0.90;99.90;;;;;;4142258;28;20280;-58
2022/04/05 00:13:29;;;;;;;32.60;15.57;;;0.90;99.90;;;;;;4141552;28;21063;-58
2022/04/05 00:15:30;;;;;;;27.63;14.23;;;0.90;99.90;;;;;;4138359;28;20319;-56
2022/04/05 00:17:32;;;;;;;36.27;16.70;;;0.90;99.90;;;;;;4141936;28;20267;-59
2022/04/05 00:19:34;;;;;;;30.33;16.70;;;0.90;99.90;;;;;;4141081;28;20267;-54
2022/04/05 00:21:35;;;;;;;22.63;12.10;;;0.90;99.90;;;;;;4136479;28;20339;-56
2022/04/05 00:23:36;;;;;;;26.83;12.40;;;0.90;99.90;;;;;;4128287;28;20284;-57
2022/04/05 00:25:37;;;;;;;29.23;14.07;;;0.90;99.90;;;;;;4126802;28;20264;-60
2022/04/05 00:27:39;;;;;;;28.33;15.23;;;0.90;99.90;;;;;;4125335;28;20360;-56
2022/04/05 00:29:40;;;;;;;30.40;15.00;;;0.90;99.90;;;;;;4126284;28;20279;-60
2022/04/05 00:31:41;;;;;;;28.40;14.10;;;0.90;99.90;;;;;;4125459;28;20276;-57
2022/04/05 00:33:42;;;;;;;33.37;16.53;;;0.90;99.90;;;;;;4126594;28;20338;-56
2022/04/05 00:35:43;;;;;;;31.73;16.00;;;0.90;99.90;;;;;;4124786;28;20284;-55
2022/04/05 00:37:44;;;;;;;31.53;17.20;;;0.80;99.90;;;;;;4126682;28;20350;-56
2022/04/05 00:39:45;;;;;;;37.57;17.93;;;0.90;99.90;;;;;;4123058;28;20261;-57
2022/04/05 00:41:48;;;;;;;33.37;17.73;;;0.80;99.90;;;;;;4132906;28;20334;-62
2022/04/05 00:43:49;;;;;;;34.80;16.87;;;0.90;99.90;;;;;;4139452;28;20322;-56
2022/04/05 00:45:50;;;;;;;33.53;16.60;;;0.80;99.90;;;;;;4139747;28;20609;-63
2022/04/05 00:47:54;;;;;;;27.10;14.40;;;0.80;99.90;;;;;;4134029;28;21186;-56
2022/04/05 00:49:55;;;;;;;25.77;15.23;;;0.80;99.90;;;;;;4124745;28;20306;-63
2022/04/05 00:51:59;;;;;;;23.67;14.57;;;0.80;99.90;;;;;;4125385;28;20617;-61
2022/04/05 00:54:04;;;;;;;19.73;10.57;;;0.80;99.90;;;;;;4124461;28;20272;-55
2022/04/05 00:56:08;;;;;;;24.17;14.33;;;0.80;99.90;;;;;;4125540;28;20687;-53
2022/04/05 00:58:14;;;;;;;42.70;20.83;;;0.80;99.90;;;;;;4124829;28;20280;-58
2022/04/05 01:00:16;;;;;;;45.70;22.20;;;0.80;99.90;;;;;;4125674;28;20272;-58
2022/04/05 01:02:19;;;;;;;42.43;22.20;;;0.60;99.90;;;;;;4128190;28;20279;-57
2022/04/05 01:04:22;;;;;;;49.33;24.73;;;0.50;99.90;;;;;;4142399;28;20334;-58
2022/04/05 01:06:32;;;;;;;50.97;22.70;;;0.40;99.90;;;;;;4140575;28;20287;-52
2022/04/05 01:08:33;;;;;;;43.17;21.92;;;0.30;99.90;;;;;;4142231;28;20287;-58
2022/04/05 01:10:35;;;;;;;43.23;21.30;;;0.10;99.90;;;;;;4140204;28;20568;-61
2022/04/05 01:12:36;;;;;;;44.77;21.30;;;0.00;99.90;;;;;;4141944;28;20304;-56
2022/04/05 01:14:38;;;;;;;48.93;22.67;;;-0.10;99.90;;;;;;4140268;28;20260;-56
2022/04/05 01:16:40;;;;;;;44.37;20.43;;;-0.20;99.90;;;;;;4140087;28;20674;-57
2022/04/05 01:18:41;;;;;;;42.40;20.70;;;-0.20;99.90;;;;;;4127286;28;20350;-60
2022/04/05 01:20:43;;;;;;;40.50;19.20;;;-0.30;99.90;;;;;;4126083;28;20291;-59
2022/04/05 01:22:46;;;;;;;37.03;18.13;;;-0.30;99.90;;;;;;4124272;28;20260;-57
2022/04/05 01:24:48;;;;;;;31.97;15.33;;;-0.30;99.90;;;;;;4124009;28;20272;-58
2022/04/05 01:26:52;;;;;;;33.77;17.63;;;-0.30;99.90;;;;;;4124313;28;20296;-56
2022/04/05 01:28:53;;;;;;;40.87;18.90;;;-0.30;99.90;;;;;;4124766;28;20618;-61
2022/04/05 01:30:54;;;;;;;40.10;19.23;;;-0.20;99.90;;;;;;4125203;28;20322;-61
2022/04/05 01:32:59;;;;;;;36.77;17.53;;;-0.20;99.90;;;;;;4123864;28;20334;-54
2022/04/05 01:35:00;;;;;;;38.67;19.70;;;-0.20;99.90;;;;;;4125264;28;20808;-56
2022/04/05 01:37:04;;;;;;;36.67;18.43;;;-0.10;99.90;;;;;;4130370;28;20259;-54
2022/04/05 01:39:06;;;;;;;41.17;20.17;;;-0.10;99.90;;;;;;4141321;28;20306;-58
2022/04/05 01:41:09;;;;;;;32.53;18.27;;;0.00;99.90;;;;;;4129845;28;20284;-58
2022/04/05 01:43:10;;;;;;;32.73;16.27;;;0.00;99.90;;;;;;4109137;28;20276;-55
2022/04/05 01:45:11;;;;;;;35.37;17.30;;;0.00;99.90;;;;;;4107365;28;20261;-58
2022/04/05 01:47:16;;;;;;;30.90;15.20;;;0.00;99.90;;;;;;4109421;28;20304;-56
2022/04/05 01:49:18;;;;;;;25.43;15.30;;;0.00;99.90;;;;;;4123473;28;20283;-55
2022/04/05 01:51:19;;;;;;;39.03;18.30;;;0.00;99.90;;;;;;4141373;28;20279;-57
2022/04/05 01:53:20;;;;;;;36.23;18.80;;;0.00;99.90;;;;;;4137887;28;21045;-60
2022/04/05 01:55:22;;;;;;;35.60;18.73;;;0.00;99.90;;;;;;4140466;28;20325;-64
2022/04/05 01:57:24;;;;;;;39.57;21.83;;;0.00;99.90;;;;;;4136293;28;20310;-59
2022/04/05 01:59:27;;;;;;;41.93;22.40;;;-0.10;99.90;;;;;;4124092;28;20264;-57
2022/04/05 02:01:28;;;;;;;41.80;20.23;;;-0.10;99.90;;;;;;4124882;28;20268;-62
2022/04/05 02:03:30;;;;;;;36.53;18.57;;;-0.20;99.90;;;;;;4123300;28;20634;-59
2022/04/05 02:05:31;;;;;;;33.50;16.90;;;-0.20;99.90;;;;;;4135313;28;20843;-57
2022/04/05 02:07:32;;;;;;;34.17;16.47;;;-0.20;99.90;;;;;;4139263;28;20303;-56
2022/04/05 02:09:35;;;;;;;27.50;15.50;;;-0.30;99.90;;;;;;4140600;28;20263;-63
2022/04/05 02:11:37;;;;;;;33.47;15.00;;;-0.30;99.90;;;;;;4139305;28;20326;-53
2022/04/05 02:13:38;;;;;;;26.07;14.90;;;-0.40;99.90;;;;;;4140866;28;20259;-54
2022/04/05 02:15:40;;;;;;;28.60;14.30;;;-0.40;99.90;;;;;;4138138;28;20283;-61
2022/04/05 02:17:41;;;;;;;27.00;14.97;;;-0.50;99.90;;;;;;4130188;28;20283;-55
2022/04/05 02:19:43;;;;;;;30.00;16.57;;;-0.50;99.90;;;;;;4123044;28;20745;-60
2022/04/05 02:21:45;;;;;;;27.73;14.83;;;-0.50;99.90;;;;;;4124581;28;20346;-60
2022/04/05 02:23:46;;;;;;;29.37;15.30;;;-0.50;99.90;;;;;;4123685;28;20338;-56
2022/04/05 02:25:49;;;;;;;29.53;15.07;;;-0.50;99.90;;;;;;4124984;28;20276;-57
2022/04/05 02:27:50;;;;;;;31.67;15.97;;;-0.60;99.90;;;;;;4123192;28;20292;-55
2022/04/05 02:29:51;;;;;;;25.80;13.93;;;-0.60;99.90;;;;;;4123732;28;20256;-62
2022/04/05 02:31:52;;;;;;;27.63;15.37;;;-0.70;99.90;;;;;;4124117;28;20653;-57
2022/04/05 02:33:53;;;;;;;27.30;14.33;;;-0.70;99.90;;;;;;4124155;28;20330;-56
2022/04/05 02:35:54;;;;;;;27.40;13.63;;;-0.70;99.90;;;;;;4124980;28;20331;-56
2022/04/05 02:38:00;;;;;;;28.17;14.87;;;-0.70;99.90;;;;;;4138695;28;20979;-62
2022/04/05 02:40:02;;;;;;;28.50;13.73;;;-0.70;99.90;;;;;;4140132;28;20891;-57
2022/04/05 02:42:04;;;;;;;26.80;13.80;;;-0.70;99.90;;;;;;4138564;28;20889;-55
2022/04/05 02:44:06;;;;;;;24.90;12.63;;;-0.70;99.90;;;;;;4140558;28;20317;-54
2022/04/05 02:46:11;;;;;;;22.67;11.40;;;-0.70;99.90;;;;;;4138945;28;20322;-57
2022/04/05 02:48:12;;;;;;;23.23;10.93;;;-0.60;99.90;;;;;;4140708;28;20295;-58
2022/04/05 02:50:17;;;;;;;26.60;12.93;;;-0.70;99.90;;;;;;4138556;28;20647;-57
2022/04/05 02:52:18;;;;;;;20.47;11.73;;;-0.70;99.90;;;;;;4126923;28;20288;-58
2022/04/05 02:54:20;;;;;;;21.33;12.30;;;-0.70;99.90;;;;;;4121930;28;20314;-61
2022/04/05 02:56:21;;;;;;;22.03;11.17;;;-0.70;99.90;;;;;;4123818;28;20287;-58
2022/04/05 02:58:22;;;;;;;21.40;11.30;;;-0.80;99.90;;;;;;4122658;28;20355;-54
2022/04/05 03:00:23;;;;;;;24.60;12.70;;;-0.80;99.90;;;;;;4124319;28;20272;-58
2022/04/05 03:02:25;;;;;;;26.90;11.97;;;-0.80;99.90;;;;;;4122815;28;20257;-56
2022/04/05 03:04:26;;;;;;;20.43;11.13;;;-0.90;99.90;;;;;;4124467;28;20834;-57
2022/04/05 03:06:27;;;;;;;17.33;9.27;;;-0.90;99.90;;;;;;4123048;28;20590;-51
2022/04/05 03:08:28;;;;;;;20.37;10.57;;;-0.90;99.90;;;;;;4123637;28;20283;-56
2022/04/05 03:10:30;;;;;;;21.47;12.17;;;-0.90;99.90;;;;;;4124230;28;20276;-58
2022/04/05 03:12:31;;;;;;;20.67;10.60;;;-0.90;99.90;;;;;;4122566;28;20259;-58
2022/04/05 03:14:32;;;;;;;19.77;10.20;;;-1.00;99.90;;;;;;4124027;28;20839;-57
2022/04/05 03:16:37;;;;;;;19.17;10.07;;;-0.90;99.90;;;;;;4122763;28;20376;-57
2022/04/05 03:18:39;;;;;;;18.83;9.60;;;-1.00;99.90;;;;;;4125211;28;20284;-56
2022/04/05 03:20:40;;;;;;;18.40;10.17;;;-1.00;99.90;;;;;;4122352;28;20264;-56
2022/04/05 03:22:42;;;;;;;18.10;10.50;;;-1.00;99.90;;;;;;4124495;28;20264;-56
2022/04/05 03:24:44;;;;;;;29.17;10.63;;;-1.00;99.90;;;;;;4122058;28;20729;-57
2022/04/05 03:26:45;;;;;;;19.47;10.20;;;-1.00;99.90;;;;;;4124261;28;20272;-57
2022/04/05 03:28:46;;;;;;;18.87;9.83;;;-1.00;99.90;;;;;;4123018;28;20260;-59
2022/04/05 03:30:48;;;;;;;15.47;8.73;;;-1.00;99.90;;;;;;4124057;28;20318;-58
2022/04/05 03:32:49;;;;;;;22.60;9.10;;;-1.00;99.90;;;;;;4122331;28;20260;-58
2022/04/05 03:34:52;;;;;;;17.70;9.80;;;-1.00;99.90;;;;;;4123681;28;21318;-61
2022/04/05 03:36:54;;;;;;;21.73;11.17;;;-1.00;99.90;;;;;;4123387;28;20319;-56
2022/04/05 03:38:55;;;;;;;22.23;10.30;;;-1.00;99.90;;;;;;4123293;28;20287;-59
2022/04/05 03:40:56;;;;;;;33.47;14.37;;;-1.00;99.90;;;;;;4123458;28;20818;-57
2022/04/05 03:42:57;;;;;;;40.67;17.93;;;-1.10;99.90;;;;;;4124794;28;20287;-59
2022/04/05 03:44:59;;;;;;;49.53;20.87;;;-1.10;99.90;;;;;;4126919;28;20272;-58
2022/04/05 03:47:01;;;;;;;52.63;21.70;;;-1.10;99.90;;;;;;4125252;28;20300;-59
2022/04/05 03:49:03;;;;;;;42.00;20.77;;;-1.10;99.90;;;;;;4126962;28;20295;-57
2022/04/05 03:51:09;;;;;;;46.23;22.03;;;-1.20;99.90;;;;;;4137748;28;20779;-55
2022/04/05 03:53:10;;;;;;;48.60;22.17;;;-1.20;99.90;;;;;;4141086;28;20779;-59
2022/04/05 03:55:11;;;;;;;42.83;19.17;;;-1.20;99.90;;;;;;4129282;28;20279;-60
2022/04/05 03:57:13;;;;;;;39.80;17.33;;;-1.20;99.90;;;;;;4133182;28;20271;-57
2022/04/05 03:59:14;;;;;;;38.80;17.37;;;-1.20;99.90;;;;;;4131018;28;20271;-58
2022/04/05 04:01:16;;;;;;;37.83;15.37;;;-1.20;99.90;;;;;;4130805;28;20283;-55
2022/04/05 04:03:17;;;;;;;43.10;16.53;;;-1.20;99.90;;;;;;4130371;28;20330;-61
2022/04/05 04:05:20;;;;;;;32.37;15.33;;;-1.10;99.90;;;;;;4131183;28;20275;-60
2022/04/05 04:07:21;;;;;;;28.93;14.67;;;-1.10;99.90;;;;;;4129552;28;20358;-57
2022/04/05 04:09:23;;;;;;;29.33;14.13;;;-1.10;99.90;;;;;;4130518;28;20330;-60
2022/04/05 04:11:24;;;;;;;31.70;13.33;;;-1.20;99.90;;;;;;4129746;28;20614;-62
2022/04/05 04:13:25;;;;;;;35.33;14.90;;;-1.20;99.90;;;;;;4129898;28;20376;-62
2022/04/05 04:15:26;;;;;;;35.57;13.93;;;-1.10;99.90;;;;;;4130070;28;21925;-53
2022/04/05 04:17:28;;;;;;;28.83;15.10;;;-1.00;99.90;;;;;;4129256;28;20288;-59
2022/04/05 04:19:29;;;;;;;28.27;14.40;;;-0.80;99.90;;;;;;4129957;28;20283;-59
2022/04/05 04:21:30;;;;;;;24.43;12.97;;;-0.50;99.90;;;;;;4128017;28;20275;-58
2022/04/05 04:23:31;;;;;;;30.37;14.00;;;-0.10;99.90;;;;;;4130540;28;20272;-58
2022/04/05 04:25:34;;;;;;;29.27;13.43;;;0.20;99.90;;;;;;4128759;28;20280;-55
2022/04/05 04:27:35;;;;;;;33.67;13.90;;;0.60;99.90;;;;;;4135343;28;20288;-59
2022/04/05 04:29:37;;;;;;;33.23;14.47;;;0.90;99.90;;;;;;4124207;28;20307;-61
2022/04/05 04:31:38;;;;;;;29.40;13.60;;;1.30;99.90;;;;;;4126096;28;20272;-53
2022/04/05 04:33:39;;;;;;;27.67;14.57;;;1.60;99.90;;;;;;4124136;28;20326;-58
2022/04/05 04:35:42;;;;;;;29.77;14.50;;;2.00;99.90;;;;;;4126377;28;20268;-60
2022/04/05 04:37:43;;;;;;;33.17;13.50;;;2.40;99.90;;;;;;4124676;28;20276;-57
2022/04/05 04:39:44;;;;;;;32.70;13.67;;;2.60;99.90;;;;;;4121084;28;20322;-59
2022/04/05 04:41:46;;;;;;;34.57;13.80;;;2.80;99.90;;;;;;4124025;28;20280;-57
2022/04/05 04:43:47;;;;;;;31.83;13.87;;;3.00;99.90;;;;;;4121173;28;20310;-55
2022/04/05 04:45:48;;;;;;;30.93;12.03;;;3.40;99.90;;;;;;4124700;28;20784;-61
2022/04/05 04:47:49;;;;;;;31.20;12.13;;;3.80;99.90;;;;;;4126143;28;20308;-58
2022/04/05 04:49:50;;;;;;;28.03;12.80;;;4.40;99.90;;;;;;4129588;28;20292;-60
2022/04/05 04:51:51;;;;;;;29.90;12.27;;;4.90;99.90;;;;;;4130957;28;20279;-60
2022/04/05 04:53:53;;;;;;;31.40;12.40;;;5.40;99.90;;;;;;4127860;28;20847;-55
2022/04/05 04:55:54;;;;;;;25.60;11.10;;;5.90;99.90;;;;;;4126303;28;20342;-59
2022/04/05 04:57:56;;;;;;;33.03;12.40;;;6.20;99.90;;;;;;4126851;28;20795;-62
2022/04/05 04:59:57;;;;;;;33.60;13.63;;;6.60;99.90;;;;;;4127860;28;20284;-58
2022/04/05 05:01:58;;;;;;;39.73;14.30;;;6.90;99.90;;;;;;4125147;28;20346;-61
2022/04/05 05:03:59;;;;;;;31.50;14.50;;;7.30;99.90;;;;;;4122173;28;20272;-61
2022/04/05 05:06:00;;;;;;;35.77;15.70;;;7.70;99.90;;;;;;4124782;28;20035;-61
2022/04/05 05:08:02;;;;;;;35.27;16.47;;;8.10;99.70;;;;;;4123646;28;20074;-59
2022/04/05 05:10:07;;;;;;;36.67;16.67;;;8.50;98.80;;;;;;4124804;28;20026;-63
2022/04/05 05:12:10;;;;;;;43.37;15.60;;;8.70;97.50;;;;;;4124174;28;20018;-58
2022/04/05 05:14:11;;;;;;;45.57;16.77;;;8.90;97.20;;;;;;4124731;28;20030;-58
2022/04/05 05:16:12;;;;;;;29.43;15.57;;;9.40;97.10;;;;;;4124552;28;20022;-55
2022/04/05 05:18:16;;;;;;;38.53;16.30;;;10.00;95.50;;;;;;4123984;28;20521;-58
2022/04/05 05:20:17;;;;;;;40.10;18.20;;;10.50;93.80;;;;;;4124981;28;20422;-57
2022/04/05 05:22:18;;;;;;;34.67;16.50;;;10.90;92.90;;;;;;4122820;28;20084;-59
2022/04/05 05:24:20;;;;;;;25.57;14.97;;;11.30;91.70;;;;;;4125140;28;20143;-62
2022/04/05 05:26:21;;;;;;;32.47;15.30;;;11.30;91.10;;;;;;4123328;28;20434;-56
2022/04/05 05:28:22;;;;;;;29.13;13.43;;;10.90;90.40;;;;;;4124849;28;20498;-58
2022/04/05 05:30:23;;;;;;;25.83;14.30;;;10.60;90.30;;;;;;4122889;28;20088;-56
2022/04/05 05:32:24;;;;;;;26.97;14.23;;;10.10;89.80;;;;;;4124377;28;20050;-58
2022/04/05 05:34:25;;;;;;;26.30;13.27;;;9.70;90.50;;;;;;4123264;28;20097;-57
2022/04/05 05:36:26;;;;;;;25.27;12.50;;;9.20;90.30;;;;;;4125239;28;20089;-57
2022/04/05 05:38:28;;;;;;;19.50;11.03;;;8.60;90.00;;;;;;4123655;28;20030;-60
2022/04/05 05:40:29;;;;;;;19.33;11.40;;;8.30;90.40;;;;;;4124486;28;20411;-60
2022/04/05 05:42:30;;;;;;;22.57;10.87;;;8.10;90.90;;;;;;4122754;28;20144;-57
2022/04/05 05:44:32;;;;;;;20.70;11.43;;;8.10;90.80;;;;;;4123191;28;20046;-58
2022/04/05 05:46:33;;;;;;;18.60;11.30;;;7.80;90.20;;;;;;4123064;28;20104;-57
2022/04/05 05:48:34;;;;;;;22.80;11.30;;;8.00;90.40;;;;;;4123337;28;20054;-60
2022/04/05 05:50:37;;;;;;;23.23;11.80;;;8.40;90.20;;;;;;4124197;28;20491;-58
2022/04/05 05:52:41;;;;;;;26.27;13.63;;;9.10;89.80;;;;;;4122689;28;20034;-58
2022/04/05 05:54:43;;;;;;;25.27;12.20;;;9.80;88.40;;;;;;4124225;28;20039;-58
2022/04/05 05:56:44;;;;;;;27.57;12.93;;;10.60;85.50;;;;;;4122749;28;20034;-58
2022/04/05 05:58:50;;;;;;;28.17;12.83;;;11.10;84.30;;;;;;4124447;28;20368;-58
2022/04/05 06:00:51;;;;;;;30.57;12.00;;;11.70;81.90;;;;;;4122671;28;20452;-60
2022/04/05 06:02:56;;;;;;;23.10;11.97;;;11.90;81.00;;;;;;4124754;28;20100;-58
2022/04/05 06:04:57;;;;;;;21.07;11.07;;;12.30;78.90;;;;;;4122071;28;20038;-59
2022/04/05 06:06:58;;;;;;;23.20;10.57;;;12.70;77.70;;;;;;4124532;28;20054;-58
2022/04/05 06:08:59;;;;;;;21.00;10.53;;;13.00;76.40;;;;;;4123112;28;20101;-58
2022/04/05 06:11:01;;;;;;;18.70;10.10;;;13.30;74.90;;;;;;4124771;28;20092;-56
2022/04/05 06:13:03;;;;;;;16.00;9.67;;;13.40;73.70;;;;;;4122402;28;20593;-57
2022/04/05 06:15:08;;;;;;;17.80;10.50;;;13.60;72.40;;;;;;4124282;28;20092;-59
2022/04/05 06:17:09;;;;;;;14.23;8.20;;;13.60;71.60;;;;;;4122655;28;20057;-61
2022/04/05 06:19:11;;;;;;;20.37;8.27;;;13.20;70.00;;;;;;4123571;28;20038;-57
2022/04/05 06:21:12;;;;;;;14.73;9.70;;;12.90;71.00;;;;;;4123463;28;20484;-58
2022/04/05 06:23:13;;;;;;;14.53;7.40;;;13.30;71.00;;;;;;4122937;28;20042;-59
2022/04/05 06:25:18;;;;;;;17.07;9.13;;;13.80;69.90;;;;;;4123851;28;20499;-59
2022/04/05 06:27:19;;;;;;;13.60;8.30;;;14.40;68.20;;;;;;4122633;28;20041;-58
2022/04/05 06:29:20;;;;;;;18.57;8.13;;;14.60;67.00;;;;;;4124268;28;20104;-59
2022/04/05 06:31:21;;;;;;;15.70;7.80;;;14.70;67.00;;;;;;4122249;28;20030;-59
2022/04/05 06:33:23;;;;;;;11.70;7.40;;;15.10;66.10;;;;;;4123962;28;20038;-58
2022/04/05 06:35:25;;;;;;;14.67;8.10;;;14.70;64.20;;;;;;4122083;28;20061;-57
2022/04/05 06:37:26;;;;;;;14.43;9.00;;;14.50;64.20;;;;;;4124394;28;20069;-56
2022/04/05 06:39:27;;;;;;;11.03;7.43;;;14.30;65.00;;;;;;4122387;28;20085;-57
2022/04/05 06:41:29;;;;;;;12.53;8.07;;;13.60;63.50;;;;;;4124156;28;20079;-59
2022/04/05 06:43:30;;;;;;;15.23;8.17;;;12.70;64.10;;;;;;4122543;28;20069;-57
2022/04/05 06:45:31;;;;;;;23.43;8.90;;;12.30;65.30;;;;;;4123662;28;20039;-58
2022/04/05 06:47:32;;;;;;;15.43;8.17;;;12.40;66.60;;;;;;4122226;28;20027;-59
2022/04/05 06:49:33;;;;;;;17.90;9.17;;;12.10;66.40;;;;;;4123333;28;20022;-60
2022/04/05 06:51:35;;;;;;;17.23;9.67;;;11.70;66.00;;;;;;4123225;28;20092;-58
2022/04/05 06:53:36;;;;;;;13.13;8.93;;;11.50;67.00;;;;;;4123053;28;20112;-59
2022/04/05 06:55:38;;;;;;;16.63;9.00;;;11.80;67.00;;;;;;4123560;28;20069;-59
2022/04/05 06:57:40;;;;;;;14.83;10.17;;;11.70;66.50;;;;;;4122610;28;20030;-58
2022/04/05 06:59:41;;;;;;;17.23;10.43;;;11.90;67.00;;;;;;4123404;28;20046;-58
2022/04/05 07:01:42;;;;;;;19.30;10.53;;;12.10;66.70;;;;;;4122275;28;20042;-55
2022/04/05 07:03:43;;;;;;;23.07;11.10;;;11.80;66.10;;;;;;4123857;28;20042;-58
2022/04/05 07:05:45;;;;;;;15.33;10.40;;;11.40;66.80;;;;;;4122075;28;20081;-59
2022/04/05 07:07:46;;;;;;;21.80;12.03;;;11.10;67.70;;;;;;4123788;28;20101;-56
2022/04/05 07:09:47;;;;;;;14.23;9.47;;;11.60;68.30;;;;;;4122207;28;20061;-60
2022/04/05 07:11:49;;;;;;;19.43;10.33;;;12.20;67.40;;;;;;4123913;28;20034;-59
2022/04/05 07:13:51;;;;;;;17.20;10.73;;;12.90;66.00;;;;;;4121871;28;20056;-60
2022/04/05 07:15:53;;;;;;;31.73;10.80;;;13.20;65.70;;;;;;4125011;28;20051;-60
2022/04/05 07:17:54;;;;;;;20.23;10.07;;;13.80;65.40;;;;;;4125501;28;20483;-58
2022/04/05 07:19:56;;;;;;;20.57;10.60;;;14.10;64.80;;;;;;4126474;28;20046;-56
2022/04/05 07:21:57;;;;;;;16.23;9.43;;;14.00;65.70;;;;;;4126218;28;20100;-58
2022/04/05 07:23:58;;;;;;;13.87;9.07;;;14.50;64.50;;;;;;4126364;28;20092;-57
2022/04/05 07:25:59;;;;;;;17.70;9.43;;;14.30;64.10;;;;;;4125698;28;20093;-59
2022/04/05 07:28:03;;;;;;;19.97;8.83;;;14.40;64.50;;;;;;4125376;28;20057;-57
2022/04/05 07:30:05;;;;;;;14.37;8.80;;;14.60;64.30;;;;;;4125875;28;20104;-56
2022/04/05 07:32:07;;;;;;;11.60;8.07;;;14.90;63.80;;;;;;4125153;28;20864;-56
2022/04/05 07:34:08;;;;;;;9.57;7.30;;;15.10;63.50;;;;;;4126787;28;20038;-57
2022/04/05 07:36:09;;;;;;;9.13;6.00;;;15.00;63.30;;;;;;4124609;28;20034;-55
2022/04/05 07:38:10;;;;;;;10.47;7.30;;;14.80;62.90;;;;;;4127222;28;20031;-62
2022/04/05 07:40:12;;;;;;;10.17;6.87;;;14.60;63.50;;;;;;4125093;28;20057;-58
2022/04/05 07:42:13;;;;;;;8.10;6.00;;;14.60;64.00;;;;;;4126154;28;20569;-60
2022/04/05 07:44:14;;;;;;;8.50;5.77;;;14.60;63.90;;;;;;4124733;28;20038;-62
2022/04/05 07:46:15;;;;;;;8.83;5.83;;;14.80;63.60;;;;;;4126790;28;20495;-56
2022/04/05 07:48:19;;;;;;;9.77;4.33;;;14.80;63.40;;;;;;4124855;28;20043;-63
2022/04/05 07:50:20;;;;;;;5.27;4.50;;;15.10;62.50;;;;;;4126590;28;20038;-63
2022/04/05 07:52:21;;;;;;;7.53;4.30;;;15.10;61.90;;;;;;4124647;28;20057;-58
2022/04/05 07:54:22;;;;;;;9.17;4.30;;;14.80;61.90;;;;;;4126172;28;20034;-57
2022/04/05 07:56:23;;;;;;;15.53;8.20;;;14.60;62.80;;;;;;4125155;28;20050;-61
2022/04/05 07:58:25;;;;;;;16.20;8.23;;;14.60;62.80;;;;;;4125477;28;20511;-63
2022/04/05 08:00:28;;;;;;;8.23;5.70;;;14.80;62.90;;;;;;4125759;28;20736;-58
2022/04/05 08:02:29;;;;;;;8.93;5.17;;;14.90;62.40;;;;;;4124562;28;20797;-59
2022/04/05 08:04:30;;;;;;;6.60;4.23;;;14.40;61.80;;;;;;4126945;28;20100;-56
2022/04/05 08:06:31;;;;;;;5.33;3.53;;;14.20;62.60;;;;;;4124191;28;20050;-60
2022/04/05 08:08:33;;;;;;;4.80;3.50;;;14.10;62.50;;;;;;4126909;28;20054;-60
2022/04/05 08:10:34;;;;;;;5.93;3.77;;;14.30;63.30;;;;;;4124550;28;20289;-59
2022/04/05 08:12:44;;;;;;;5.30;2.93;;;14.40;63.50;;;;;;4125931;28;20097;-58
2022/04/05 08:14:45;;;;;;;6.43;3.47;;;14.20;61.30;;;;;;4124572;28;20104;-59
2022/04/05 08:16:47;;;;;;;3.87;3.00;;;13.80;62.60;;;;;;4126441;28;20030;-59
2022/04/05 08:18:48;;;;;;;4.10;3.27;;;13.50;62.70;;;;;;4123095;28;20559;-59
2022/04/05 08:20:49;;;;;;;3.97;3.00;;;13.60;63.70;;;;;;4125822;28;20483;-60
2022/04/05 08:22:50;;;;;;;4.77;3.10;;;13.70;63.20;;;;;;4124095;28;20023;-62
2022/04/05 08:24:52;;;;;;;3.53;2.90;;;13.80;62.90;;;;;;4123816;28;20380;-61
2022/04/05 08:26:53;;;;;;;4.00;3.10;;;13.70;62.50;;;;;;4124433;28;20086;-64
2022/04/05 08:28:57;;;;;;;5.43;2.90;;;13.80;62.70;;;;;;4124371;28;20096;-62
2022/04/05 08:30:58;;;;;;;5.03;2.97;;;13.70;62.80;;;;;;4124898;28;20483;-62
2022/04/05 08:32:59;;;;;;;3.10;2.57;;;13.50;62.90;;;;;;4124375;28;20097;-58
2022/04/05 08:35:01;;;;;;;4.47;2.80;;;13.40;62.50;;;;;;4124471;28;20054;-57
2022/04/05 08:37:02;;;;;;;4.83;2.70;;;13.10;62.90;;;;;;4124175;28;20094;-59
2022/04/05 08:39:03;;;;;;;5.23;3.37;;;13.10;63.20;;;;;;4126200;28;20077;-61
2022/04/05 08:41:08;;;;;;;3.30;2.73;;;12.90;63.10;;;;;;4124032;28;20065;-58
2022/04/05 08:43:09;;;;;;;5.50;3.33;;;12.80;62.70;;;;;;4124917;28;20462;-61
2022/04/05 08:45:12;;;;;;;3.73;2.67;;;12.60;63.10;;;;;;4124163;28;20035;-60
2022/04/05 08:47:14;;;;;;;3.47;2.50;;;12.40;63.30;;;;;;4125994;28;20026;-60
2022/04/05 08:49:15;;;;;;;6.37;2.63;;;12.40;63.80;;;;;;4123963;28;20054;-64
2022/04/05 08:51:17;;;;;;;3.10;2.50;;;12.50;63.70;;;;;;4125623;28;20045;-55
2022/04/05 08:53:19;;;;;;;3.83;2.57;;;12.50;63.90;;;;;;4124021;28;20085;-65
2022/04/05 08:55:21;;;;;;;4.27;2.83;;;12.50;63.50;;;;;;4125604;28;20026;-58
2022/04/05 08:57:22;;;;;;;4.57;2.60;;;12.70;64.00;;;;;;4123905;28;20517;-63
2022/04/05 08:59:28;;;;;;;6.23;2.90;;;12.90;64.30;;;;;;4124969;28;20030;-64
2022/04/05 09:01:29;;;;;;;3.43;2.43;;;13.20;63.80;;;;;;4124215;28;20038;-60
2022/04/05 09:03:32;;;;;;;2.60;2.40;;;13.10;63.20;;;;;;4124232;28;20038;-58
2022/04/05 09:05:43;;;;;;;3.10;2.60;;;12.90;62.90;;;;;;4124281;28;20018;-61
2022/04/05 09:07:45;;;;;;;5.68;2.60;;;12.80;62.40;;;;;;4123959;28;20088;-61
2022/04/05 09:10:15;;;;;;;3.80;3.00;;;12.90;63.00;;;;;;4124676;28;20483;-57
2022/04/05 09:12:17;;;;;;;3.45;2.25;;;13.10;62.20;;;;;;4123834;28;20050;-59
2022/04/05 09:14:27;;;;;;;2.67;2.33;;;13.20;62.80;;;;;;4123940;28;20178;-60
2022/04/05 09:16:33;;;;;;;2.83;2.40;;;13.20;61.80;;;;;;4124234;28;20042;-58
2022/04/05 09:18:44;;;;;;;4.07;2.07;;;13.10;62.10;;;;;;4124387;28;20108;-58
2022/04/05 09:20:48;;;;;;;3.92;2.67;;;13.10;61.60;;;;;;4124141;28;20026;-58
2022/04/05 09:22:49;;;;;;;4.13;2.27;;;13.10;62.00;;;;;;4124292;28;20038;-59
2022/04/05 09:24:50;;;;;;;3.87;2.50;;;13.00;61.80;;;;;;4123111;28;20030;-64
2022/04/05 09:26:51;;;;;;;6.00;2.20;;;13.10;62.00;;;;;;4124274;28;20034;-62
2022/04/05 09:28:52;;;;;;;3.97;2.60;;;13.00;62.00;;;;;;4122971;28;20116;-59
2022/04/05 09:30:57;;;;;;;2.80;2.33;;;13.10;62.20;;;;;;4124881;28;20026;-60
2022/04/05 09:33:01;;;;;;;3.67;2.47;;;13.20;61.80;;;;;;4123228;28;20046;-59
2022/04/05 09:35:03;;;;;;;4.70;2.30;;;13.40;62.20;;;;;;4124820;28;20050;-58
2022/04/05 09:37:08;;;;;;;2.50;2.20;;;13.60;62.00;;;;;;4122959;28;20050;-58
2022/04/05 09:39:20;;;;;;;5.67;2.63;;;13.80;61.30;;;;;;4125116;28;20039;-54
2022/04/05 09:41:23;;;;;;;2.30;2.10;;;13.90;60.90;;;;;;4122372;28;21022;-62
2022/04/05 09:43:24;;;;;;;6.17;3.70;;;14.00;61.10;;;;;;4124272;28;20042;-58
2022/04/05 09:45:43;;;;;;;4.80;3.43;;;14.10;61.30;;;;;;4123375;28;20042;-56
2022/04/05 09:48:02;;;;;;;5.07;2.73;;;14.30;60.90;;;;;;4125005;28;20061;-60
2022/04/05 09:50:04;;;;;;;8.13;2.30;;;14.40;59.30;;;;;;4122761;28;20042;-57
2022/04/05 09:52:32;;;;;;;6.57;1.80;;;14.20;59.40;;;;;;4124561;28;20096;-59
2022/04/05 09:54:35;;;;;;;5.23;2.37;;;13.80;55.60;;;;;;4121370;28;20582;-56
2022/04/05 09:56:39;;;;;;;4.50;1.90;;;13.70;58.90;;;;;;4124635;28;20641;-58
2022/04/05 09:58:44;;;;;;;6.13;1.70;;;13.80;59.20;;;;;;4122979;28;20019;-61
2022/04/05 10:01:06;;;;;;;2.00;1.63;;;14.10;59.80;;;;;;4124606;28;20142;-60
2022/04/05 10:03:11;;;;;;;4.53;1.57;;;14.40;57.40;;;;;;4122485;28;20132;-60
2022/04/05 10:05:12;;;;;;;2.60;1.77;;;14.30;58.20;;;;;;4123608;28;20037;-59
2022/04/05 10:07:13;;;;;;;3.00;1.80;;;14.30;58.00;;;;;;4122289;28;20102;-60
2022/04/05 10:09:17;;;;;;;2.40;1.90;;;14.20;58.00;;;;;;4125087;28;20038;-60
2022/04/05 10:11:20;;;;;;;4.53;2.20;;;14.30;58.00;;;;;;4121935;28;20038;-57
2022/04/05 10:13:21;;;;;;;12.37;7.77;;;14.60;58.10;;;;;;4124258;28;20100;-60
2022/04/05 10:15:24;;;;;;;12.03;6.30;;;14.70;57.90;;;;;;4122753;28;20134;-57
2022/04/05 10:17:27;;;;;;;7.13;4.80;;;14.80;57.60;;;;;;4124112;28;20026;-61
2022/04/05 10:19:29;;;;;;;6.87;4.10;;;14.80;57.50;;;;;;4122675;28;20034;-58
2022/04/05 10:21:34;;;;;;;4.97;3.30;;;14.80;57.60;;;;;;4122841;28;20038;-55
2022/04/05 10:23:36;;;;;;;7.50;4.80;;;15.00;57.80;;;;;;4122683;28;20022;-57
2022/04/05 10:25:41;;;;;;;7.80;5.43;;;15.10;58.00;;;;;;4122011;28;20034;-60
2022/04/05 10:27:43;;;;;;;6.40;4.00;;;15.10;57.70;;;;;;4123310;28;20447;-64